createdAt,value
2023-04-11T00:01:18.404Z,4.37
2023-04-11T00:04:04.378Z,4.29
2023-04-11T00:06:50.420Z,4.30
2023-04-11T00:09:36.188Z,4.26
2023-04-11T00:12:21.880Z,4.21
2023-04-11T00:15:08.827Z,4.14
2023-04-11T00:17:55.122Z,4.13
2023-04-11T00:20:40.869Z,4.11
2023-04-11T00:23:26.406Z,4.10
2023-04-11T00:26:11.875Z,4.13
2023-04-11T00:28:58.224Z,4.15
2023-04-11T00:31:43.496Z,4.18
2023-04-11T00:34:29.280Z,4.16
2023-04-11T00:37:14.612Z,4.15
2023-04-11T00:40:00.064Z,4.12
2023-04-11T00:42:45.697Z,4.08
2023-04-11T00:45:31.099Z,4.04
2023-04-11T00:48:17.828Z,4.05
2023-04-11T00:51:03.307Z,4.04
2023-04-11T00:53:49.049Z,4.05
2023-04-11T00:56:35.351Z,4.02
2023-04-11T00:59:20.761Z,4.03
2023-04-11T01:02:06.330Z,3.98
2023-04-11T01:04:52.388Z,4.00
2023-04-11T01:07:40.200Z,3.99
2023-04-11T01:10:30.875Z,3.98
2023-04-11T01:13:17.031Z,4.02
2023-04-11T01:16:04.161Z,4.03
2023-04-11T01:18:50.091Z,4.00
2023-04-11T01:21:37.906Z,3.97
2023-04-11T01:24:24.063Z,4.00
2023-04-11T01:27:10.512Z,4.02
2023-04-11T01:29:56.661Z,4.05
2023-04-11T01:32:43.700Z,4.04
2023-04-11T01:35:29.707Z,4.05
2023-04-11T01:38:15.419Z,4.11
2023-04-11T01:41:01.154Z,4.11
2023-04-11T01:43:47.351Z,4.12
2023-04-11T01:46:33.569Z,4.15
2023-04-11T01:49:19.292Z,4.21
2023-04-11T01:52:05.940Z,4.21
2023-04-11T01:54:51.551Z,4.22
2023-04-11T01:57:36.914Z,4.23
2023-04-11T02:00:22.556Z,4.24
2023-04-11T02:03:08.248Z,4.23
2023-04-11T02:05:55.019Z,4.25
2023-04-11T02:08:40.632Z,4.25
2023-04-11T02:11:26.142Z,4.22
2023-04-11T02:14:14.482Z,4.21
2023-04-11T02:16:59.908Z,4.13
2023-04-11T02:19:46.177Z,4.12
2023-04-11T02:22:32.693Z,4.12
2023-04-11T02:25:18.164Z,4.07
2023-04-11T02:28:05.121Z,4.09
2023-04-11T02:30:52.821Z,4.13
2023-04-11T02:33:38.418Z,4.07
2023-04-11T02:36:23.814Z,4.02
2023-04-11T02:39:09.691Z,3.94
2023-04-11T02:41:55.710Z,3.87
2023-04-11T02:44:41.429Z,3.98
2023-04-11T02:47:27.136Z,4.08
2023-04-11T02:50:15.152Z,4.19
2023-04-11T02:53:06.278Z,4.28
2023-04-11T02:55:53.741Z,4.30
2023-04-11T02:58:41.948Z,4.40
2023-04-11T03:01:28.251Z,4.40
2023-04-11T03:04:15.124Z,4.44
2023-04-11T03:07:17.318Z,4.43
2023-04-11T03:10:02.633Z,4.47
2023-04-11T03:12:48.184Z,4.43
2023-04-11T03:15:34.450Z,4.39
2023-04-11T03:18:24.586Z,4.37
2023-04-11T03:21:11.621Z,4.35
2023-04-11T03:24:02.488Z,4.34
2023-04-11T03:26:48.265Z,4.33
2023-04-11T03:29:35.362Z,4.33
2023-04-11T03:32:39.429Z,4.27
2023-04-11T03:35:24.744Z,4.25
2023-04-11T03:38:10.008Z,4.21
2023-04-11T03:40:55.544Z,4.23
2023-04-11T03:43:44.431Z,4.17
2023-04-11T03:46:29.783Z,4.12
2023-04-11T03:49:15.606Z,4.08
2023-04-11T03:52:04.492Z,4.07
2023-04-11T03:54:50.252Z,3.99
2023-04-11T03:57:36.639Z,4.03
2023-04-11T04:00:22.706Z,4.02
2023-04-11T04:03:19.399Z,4.02
2023-04-11T04:06:05.537Z,3.97
2023-04-11T04:08:51.659Z,3.98
2023-04-11T04:11:39.068Z,3.99
2023-04-11T04:14:24.387Z,3.98
2023-04-11T04:17:11.578Z,3.93
2023-04-11T04:19:57.067Z,3.96
2023-04-11T04:22:42.381Z,3.94
2023-04-11T04:25:28.592Z,3.94
2023-04-11T04:28:17.928Z,3.95
2023-04-11T04:31:04.074Z,3.91
2023-04-11T04:33:58.745Z,3.87
2023-04-11T04:36:47.878Z,3.90
2023-04-11T04:39:39.448Z,3.94
2023-04-11T04:42:29.559Z,3.90
2023-04-11T04:45:20.793Z,3.92
2023-04-11T04:48:06.821Z,3.88
2023-04-11T04:50:52.510Z,3.90
2023-04-11T04:53:39.092Z,3.91
2023-04-11T04:56:30.730Z,3.91
2023-04-11T04:59:18.789Z,3.91
2023-04-11T05:02:10.515Z,3.86
2023-04-11T05:04:57.548Z,3.90
2023-04-11T05:07:45.335Z,3.95
2023-04-11T05:10:31.973Z,4.02
2023-04-11T05:13:17.978Z,4.05
2023-04-11T05:16:03.314Z,4.10
2023-04-11T05:18:49.700Z,4.09
2023-04-11T05:21:37.894Z,4.09
2023-04-11T05:24:23.705Z,4.04
2023-04-11T05:27:09.870Z,4.03
2023-04-11T05:29:55.358Z,4.02
2023-04-11T05:32:43.031Z,4.03
2023-04-11T05:35:29.996Z,4.03
2023-04-11T05:38:17.090Z,4.08
2023-04-11T05:41:02.520Z,4.07
2023-04-11T05:43:48.054Z,4.07
2023-04-11T05:46:35.806Z,4.07
2023-04-11T05:49:21.467Z,4.03
2023-04-11T05:52:07.877Z,3.97
2023-04-11T05:54:53.138Z,3.92
2023-04-11T05:57:38.490Z,3.87
2023-04-11T06:00:25.978Z,3.79
2023-04-11T06:03:11.374Z,3.69
2023-04-11T06:05:56.773Z,3.57
2023-04-11T06:08:42.943Z,3.45
2023-04-11T06:11:28.268Z,3.35
2023-04-11T06:14:13.660Z,3.29
2023-04-11T06:16:58.919Z,3.29
2023-04-11T06:19:44.263Z,3.34
2023-04-11T06:22:29.471Z,3.33
2023-04-11T06:25:14.724Z,3.34
2023-04-11T06:28:00.016Z,3.39
2023-04-11T06:30:45.233Z,3.43
2023-04-11T06:33:31.024Z,3.45
2023-04-11T06:36:16.603Z,3.48
2023-04-11T06:39:01.891Z,3.51
2023-04-11T06:41:47.963Z,3.59
2023-04-11T06:44:42.535Z,3.70
2023-04-11T06:47:27.833Z,3.87
2023-04-11T06:50:13.430Z,4.03
2023-04-11T06:52:59.277Z,4.23
2023-04-11T06:55:48.769Z,4.45
2023-04-11T06:58:34.168Z,4.59
2023-04-11T07:01:21.096Z,4.71
2023-04-11T07:04:07.366Z,4.86
2023-04-11T07:06:53.111Z,5.05
2023-04-11T07:09:38.702Z,5.25
2023-04-11T07:12:24.027Z,5.38
2023-04-11T07:15:10.085Z,5.50
2023-04-11T07:17:55.856Z,5.64
2023-04-11T07:20:41.457Z,5.78
2023-04-11T07:23:26.938Z,5.94
2023-04-11T07:26:14.594Z,6.09
2023-04-11T07:29:00.942Z,6.25
2023-04-11T07:31:47.747Z,6.40
2023-04-11T07:34:33.373Z,6.51
2023-04-11T07:37:19.690Z,6.65
2023-04-11T07:40:11.970Z,6.81
2023-04-11T07:42:57.643Z,6.97
2023-04-11T07:45:43.141Z,7.11
2023-04-11T07:48:30.648Z,7.29
2023-04-11T07:51:17.281Z,7.44
2023-04-11T07:54:02.663Z,7.57
2023-04-11T07:56:48.111Z,7.69
2023-04-11T07:59:33.316Z,7.78
2023-04-11T08:02:18.811Z,7.86
2023-04-11T08:05:04.887Z,7.94
2023-04-11T08:07:50.916Z,8.02
2023-04-11T08:10:36.283Z,8.09
2023-04-11T08:13:21.576Z,8.21
2023-04-11T08:16:08.568Z,8.30
2023-04-11T08:18:53.876Z,8.38
2023-04-11T08:21:39.039Z,8.45
2023-04-11T08:24:24.470Z,8.48
2023-04-11T08:27:09.927Z,8.46
2023-04-11T08:29:57.555Z,8.46
2023-04-11T08:32:43.341Z,8.48
2023-04-11T08:35:28.663Z,8.55
2023-04-11T08:38:14.321Z,8.67
2023-04-11T08:41:00.254Z,8.89
2023-04-11T08:43:47.132Z,9.12
2023-04-11T08:46:33.914Z,9.25
2023-04-11T08:49:19.707Z,9.28
2023-04-11T08:52:05.279Z,9.21
2023-04-11T08:54:56.616Z,9.11
2023-04-11T08:57:42.495Z,9.12
2023-04-11T09:00:29.276Z,9.09
2023-04-11T09:03:16.999Z,9.06
2023-04-11T09:06:10.518Z,9.04
2023-04-11T09:08:55.838Z,9.06
2023-04-11T09:11:55.398Z,9.03
2023-04-11T09:14:41.288Z,9.03
2023-04-11T09:17:42.074Z,9.04
2023-04-11T09:20:30.234Z,9.06
2023-04-11T09:23:24.334Z,9.09
2023-04-11T09:26:12.919Z,9.09
2023-04-11T09:28:58.461Z,9.01
2023-04-11T09:31:45.770Z,8.95
2023-04-11T09:34:31.368Z,8.95
2023-04-11T09:37:16.729Z,9.00
2023-04-11T09:40:02.232Z,9.04
2023-04-11T09:42:48.985Z,9.15
2023-04-11T09:45:41.193Z,9.21
2023-04-11T09:48:46.139Z,9.22
2023-04-11T09:51:36.875Z,9.23
2023-04-11T09:54:22.610Z,9.30
2023-04-11T09:57:08.557Z,9.33
2023-04-11T09:59:55.549Z,9.39
2023-04-11T10:02:42.049Z,9.51
2023-04-11T10:05:29.991Z,9.62
2023-04-11T10:08:30.692Z,9.74
2023-04-11T10:11:18.636Z,9.91
2023-04-11T10:14:04.418Z,10.11
2023-04-11T10:17:21.239Z,10.30
2023-04-11T10:20:50.459Z,10.43
2023-04-11T10:24:10.032Z,10.54
2023-04-11T10:26:58.099Z,10.69
2023-04-11T10:29:48.807Z,10.82
2023-04-11T10:32:35.457Z,10.82
2023-04-11T10:35:22.835Z,10.76
2023-04-11T10:38:37.468Z,10.56
2023-04-11T10:41:23.008Z,10.41
2023-04-11T10:44:21.025Z,10.29
2023-04-11T10:47:17.743Z,10.13
2023-04-11T10:50:03.790Z,9.97
2023-04-11T10:52:49.714Z,9.79
2023-04-11T10:55:46.242Z,9.60
2023-04-11T10:58:40.619Z,9.47
2023-04-11T11:01:32.159Z,9.45
2023-04-11T11:04:39.593Z,9.44
2023-04-11T11:07:25.495Z,9.41
2023-04-11T11:10:11.245Z,9.38
2023-04-11T11:12:56.952Z,9.44
2023-04-11T11:15:48.128Z,9.47
2023-04-11T11:18:34.370Z,9.46
2023-04-11T11:21:27.803Z,9.45
2023-04-11T11:24:13.629Z,9.46
2023-04-11T11:26:59.093Z,9.47
2023-04-11T11:29:44.767Z,9.39
2023-04-11T11:32:32.887Z,9.47
2023-04-11T11:35:18.732Z,9.63
2023-04-11T11:38:04.337Z,9.76
2023-04-11T11:40:50.362Z,9.74
2023-04-11T11:43:37.270Z,9.77
2023-04-11T11:46:22.864Z,9.90
2023-04-11T11:49:08.721Z,10.01
2023-04-11T11:51:54.391Z,10.06
2023-04-11T11:54:47.347Z,10.05
2023-04-11T11:57:33.839Z,10.04
2023-04-11T12:00:27.251Z,10.02
2023-04-11T12:03:12.784Z,10.00
2023-04-11T12:05:58.479Z,10.01
2023-04-11T12:08:54.051Z,10.02
2023-04-11T12:11:41.511Z,10.04
2023-04-11T12:14:27.337Z,10.14
2023-04-11T12:17:13.058Z,10.22
2023-04-11T12:19:58.335Z,10.08
2023-04-11T12:22:43.764Z,10.04
2023-04-11T12:25:29.453Z,9.98
2023-04-11T12:28:14.984Z,10.01
2023-04-11T12:31:00.577Z,10.05
2023-04-11T12:33:45.909Z,10.15
2023-04-11T12:39:21.764Z,10.52
2023-04-11T12:42:07.971Z,10.58
2023-04-11T12:44:54.715Z,10.58
2023-04-11T12:47:40.972Z,10.66
2023-04-11T12:50:26.161Z,10.57
2023-04-11T12:53:11.659Z,10.50
2023-04-11T12:55:56.928Z,10.38
2023-04-11T12:58:42.423Z,10.29
2023-04-11T13:01:28.339Z,10.23
2023-04-11T13:04:14.279Z,10.17
2023-04-11T13:07:03.532Z,10.13
2023-04-11T13:09:49.853Z,10.06
2023-04-11T13:12:39.873Z,10.06
2023-04-11T13:15:25.635Z,10.06
2023-04-11T13:18:11.200Z,10.00
2023-04-11T13:20:56.730Z,10.00
2023-04-11T13:23:42.063Z,10.00
2023-04-11T13:26:28.666Z,9.98
2023-04-11T13:29:14.064Z,9.95
2023-04-11T13:31:59.430Z,9.95
2023-04-11T13:34:44.700Z,9.98
2023-04-11T13:37:30.206Z,10.02
2023-04-11T13:40:16.156Z,10.05
2023-04-11T13:43:01.390Z,10.08
2023-04-11T13:45:46.810Z,10.18
2023-04-11T13:48:32.707Z,10.32
2023-04-11T13:51:19.263Z,10.42
2023-04-11T13:54:04.920Z,10.51
2023-04-11T13:56:50.341Z,10.64
2023-04-11T13:59:36.377Z,10.62
2023-04-11T14:02:22.023Z,10.42
2023-04-11T14:05:08.927Z,10.39
2023-04-11T14:07:54.599Z,10.27
2023-04-11T14:10:39.868Z,10.26
2023-04-11T14:13:25.211Z,10.21
2023-04-11T14:16:11.111Z,10.20
2023-04-11T14:18:56.584Z,10.23
2023-04-11T14:21:42.172Z,10.16
2023-04-11T14:24:28.422Z,10.08
2023-04-11T14:27:13.892Z,10.02
2023-04-11T14:29:59.116Z,9.97
2023-04-11T14:32:44.392Z,9.93
2023-04-11T14:35:29.853Z,9.84
2023-04-11T14:38:15.938Z,9.72
2023-04-11T14:41:01.343Z,9.68
2023-04-11T14:43:46.703Z,9.66
2023-04-11T14:46:31.960Z,9.61
2023-04-11T14:49:17.278Z,9.66
2023-04-11T14:52:03.222Z,9.69
2023-04-11T14:54:49.001Z,9.76
2023-04-11T14:57:48.817Z,9.87
2023-04-11T15:00:34.470Z,9.88
2023-04-11T15:03:20.254Z,9.89
2023-04-11T15:06:06.347Z,9.92
2023-04-11T15:08:52.402Z,9.88
2023-04-11T15:11:38.274Z,9.80
2023-04-11T15:14:29.438Z,9.76
2023-04-11T15:17:15.008Z,9.71
2023-04-11T15:20:00.763Z,9.62
2023-04-11T15:22:46.622Z,9.58
2023-04-11T15:25:32.449Z,9.55
2023-04-11T15:28:17.738Z,9.56
2023-04-11T15:31:05.000Z,9.51
2023-04-11T15:33:50.490Z,9.50
2023-04-11T15:36:38.726Z,9.47
2023-04-11T15:39:24.051Z,9.43
2023-04-11T15:42:09.463Z,9.39
2023-04-11T15:44:54.857Z,9.30
2023-04-11T15:47:40.723Z,9.28
2023-04-11T15:50:28.940Z,9.14
2023-04-11T15:53:14.242Z,9.10
2023-04-11T15:55:59.591Z,9.06
2023-04-11T15:58:44.959Z,9.00
2023-04-11T16:01:31.091Z,8.97
2023-04-11T16:04:16.830Z,8.93
2023-04-11T16:07:02.436Z,8.94
2023-04-11T16:09:47.787Z,8.93
2023-04-11T16:12:33.047Z,8.93
2023-04-11T16:15:19.413Z,8.94
2023-04-11T16:18:04.898Z,8.94
2023-04-11T16:20:50.099Z,8.95
2023-04-11T16:23:35.556Z,8.96
2023-04-11T16:26:21.278Z,8.95
2023-04-11T16:29:06.927Z,8.94
2023-04-11T16:31:52.452Z,8.93
2023-04-11T16:34:37.769Z,8.90
2023-04-11T16:37:23.542Z,8.89
2023-04-11T16:40:12.285Z,8.84
2023-04-11T16:42:57.828Z,8.83
2023-04-11T16:45:43.369Z,8.82
2023-04-11T16:48:30.692Z,8.79
2023-04-11T16:51:18.458Z,8.75
2023-04-11T16:54:09.597Z,8.73
2023-04-11T16:56:54.963Z,8.67
2023-04-11T16:59:40.217Z,8.62
2023-04-11T17:02:26.090Z,8.58
2023-04-11T17:05:11.517Z,8.41
2023-04-11T17:07:56.989Z,8.21
2023-04-11T17:10:42.753Z,8.04
2023-04-11T17:13:28.175Z,7.37
2023-04-11T17:16:13.886Z,6.99
2023-04-11T17:18:59.199Z,6.83
2023-04-11T17:21:44.605Z,6.50
2023-04-11T17:24:30.160Z,6.22
2023-04-11T17:27:15.677Z,6.02
2023-04-11T17:30:02.351Z,5.90
2023-04-11T17:32:48.955Z,5.73
2023-04-11T17:35:34.869Z,5.53
2023-04-11T17:38:20.579Z,5.43
2023-04-11T17:41:14.368Z,5.35
2023-04-11T17:44:00.980Z,5.24
2023-04-11T17:46:46.743Z,5.19
2023-04-11T17:49:32.154Z,5.10
2023-04-11T17:52:17.738Z,5.07
2023-04-11T17:55:06.381Z,5.03
2023-04-11T17:57:53.371Z,5.03
2023-04-11T18:00:52.598Z,5.06
2023-04-11T18:03:41.764Z,5.04
2023-04-11T18:06:29.939Z,5.05
2023-04-11T18:09:18.370Z,5.06
2023-04-11T18:12:03.821Z,5.02
2023-04-11T18:14:49.163Z,4.98
2023-04-11T18:17:38.306Z,4.98
2023-04-11T18:20:23.942Z,4.92
2023-04-11T18:23:09.349Z,4.93
2023-04-11T18:25:54.750Z,4.93
2023-04-11T18:28:40.235Z,4.91
2023-04-11T18:31:25.866Z,4.95
2023-04-11T18:34:11.736Z,4.97
2023-04-11T18:36:57.655Z,4.99
2023-04-11T18:39:42.852Z,4.99
2023-04-11T18:42:28.388Z,4.99
2023-04-11T18:45:15.061Z,5.02
2023-04-11T18:48:00.910Z,5.06
2023-04-11T18:50:48.731Z,5.05
2023-04-11T18:53:36.598Z,5.02
2023-04-11T18:56:22.371Z,4.97
2023-04-11T18:59:09.631Z,4.98
2023-04-11T19:01:55.963Z,4.97
2023-04-11T19:04:46.142Z,4.92
2023-04-11T19:07:31.904Z,4.87
2023-04-11T19:10:17.398Z,4.85
2023-04-11T19:13:03.147Z,4.86
2023-04-11T19:15:48.716Z,4.82
2023-04-11T19:18:34.013Z,4.76
2023-04-11T19:21:19.308Z,4.74
2023-04-11T19:24:05.689Z,4.71
2023-04-11T19:26:52.796Z,4.77
2023-04-11T19:29:38.402Z,4.83
2023-04-11T19:32:23.877Z,4.72
2023-04-11T19:35:10.845Z,4.66
2023-04-11T19:37:56.439Z,4.57
2023-04-11T19:40:42.112Z,4.48
2023-04-11T19:43:27.337Z,4.44
2023-04-11T19:46:12.748Z,4.38
2023-04-11T19:48:58.028Z,4.30
2023-04-11T19:51:43.419Z,4.20
2023-04-11T19:54:28.907Z,4.15
2023-04-11T19:57:14.378Z,4.05
2023-04-11T19:59:59.773Z,4.00
2023-04-11T20:02:47.107Z,3.90
2023-04-11T20:05:32.680Z,3.86
2023-04-11T20:08:18.923Z,3.83
2023-04-11T20:11:05.691Z,3.81
2023-04-11T20:13:51.368Z,3.79
2023-04-11T20:16:36.728Z,3.77
2023-04-11T20:19:27.520Z,3.81
2023-04-11T20:22:18.447Z,3.90
2023-04-11T20:25:04.260Z,4.03
2023-04-11T20:27:50.104Z,4.10
2023-04-11T20:30:38.199Z,4.12
2023-04-11T20:33:23.746Z,4.13
2023-04-11T20:36:09.285Z,4.07
2023-04-11T20:38:55.730Z,3.99
2023-04-11T20:41:41.858Z,4.00
2023-04-11T20:44:27.633Z,4.04
2023-04-11T20:47:12.970Z,4.06
2023-04-11T20:50:04.123Z,3.99
2023-04-11T20:52:53.181Z,4.03
2023-04-11T20:55:39.075Z,3.99
2023-04-11T20:58:24.379Z,3.87
2023-04-11T21:01:09.728Z,3.79
2023-04-11T21:03:57.574Z,3.76
2023-04-11T21:06:44.920Z,3.83
2023-04-11T21:09:30.260Z,3.86
2023-04-11T21:12:16.362Z,3.78
2023-04-11T21:15:03.640Z,3.74
2023-04-11T21:17:50.502Z,3.70
2023-04-11T21:20:36.382Z,3.61
2023-04-11T21:23:22.338Z,3.50
2023-04-11T21:26:08.135Z,3.38
2023-04-11T21:28:53.388Z,3.34
2023-04-11T21:31:38.909Z,3.21
2023-04-11T21:34:24.321Z,3.13
2023-04-11T21:37:09.706Z,3.08
2023-04-11T21:39:55.475Z,3.02
2023-04-11T21:42:41.100Z,2.96
2023-04-11T21:45:27.498Z,2.91
2023-04-11T21:48:12.750Z,2.83
2023-04-11T21:50:58.085Z,2.77
2023-04-11T21:53:43.743Z,2.75
2023-04-11T21:56:29.377Z,2.69
2023-04-11T21:59:15.011Z,2.64
2023-04-11T22:02:00.541Z,2.60
2023-04-11T22:05:03.810Z,2.55
2023-04-11T22:07:51.162Z,2.55
2023-04-11T22:10:47.454Z,2.50
2023-04-11T22:13:35.035Z,2.45
2023-04-11T22:16:26.376Z,2.46
2023-04-11T22:19:11.933Z,2.38
2023-04-11T22:21:57.272Z,2.37
2023-04-11T22:24:42.599Z,2.30
2023-04-11T22:27:29.557Z,2.24
2023-04-11T22:30:14.955Z,2.18
2023-04-11T22:33:01.948Z,2.14
2023-04-11T22:35:47.883Z,2.12
2023-04-11T22:38:35.239Z,2.06
2023-04-11T22:41:22.025Z,2.03
2023-04-11T22:44:07.635Z,2.03
2023-04-11T22:47:07.466Z,2.05
2023-04-11T22:49:52.698Z,2.09
2023-04-11T22:52:38.080Z,2.11
2023-04-11T22:55:24.825Z,2.13
2023-04-11T22:58:10.582Z,2.04
2023-04-11T23:00:56.077Z,2.03
2023-04-11T23:03:42.339Z,2.08
2023-04-11T23:06:27.895Z,2.15
2023-04-11T23:09:14.994Z,2.17
2023-04-11T23:12:00.842Z,2.16
2023-04-11T23:14:46.650Z,2.21
2023-04-11T23:17:31.944Z,2.22
2023-04-11T23:20:17.880Z,2.23
2023-04-11T23:23:04.217Z,2.26
2023-04-11T23:25:49.792Z,2.31
2023-04-11T23:28:35.126Z,2.35
2023-04-11T23:31:20.696Z,2.34
2023-04-11T23:34:07.023Z,2.33
2023-04-11T23:36:52.961Z,2.34
2023-04-11T23:39:38.086Z,2.29
2023-04-11T23:42:23.523Z,2.21
2023-04-11T23:45:10.793Z,2.14
2023-04-11T23:47:56.313Z,2.14
2023-04-11T23:50:41.778Z,2.15
2023-04-11T23:53:26.987Z,2.22
2023-04-11T23:56:12.840Z,2.18
2023-04-11T23:58:58.025Z,2.15
